createdAt,value
2023-04-27T00:00:47.256Z,100204.25
2023-04-27T00:03:14.004Z,100203.19
2023-04-27T00:05:40.665Z,100202.34
2023-04-27T00:08:07.344Z,100200.47
2023-04-27T00:10:34.148Z,100201.56
2023-04-27T00:13:02.062Z,100202.09
2023-04-27T00:15:29.138Z,100197.16
2023-04-27T00:17:55.711Z,100190.31
2023-04-27T00:20:22.316Z,100191.94
2023-04-27T00:22:48.936Z,100193.91
2023-04-27T00:25:15.683Z,100188.22
2023-04-27T00:27:42.192Z,100197.00
2023-04-27T00:30:09.255Z,100198.91
2023-04-27T00:32:35.893Z,100189.03
2023-04-27T00:35:02.473Z,100200.84
2023-04-27T00:37:28.941Z,100199.19
2023-04-27T00:39:55.389Z,100204.09
2023-04-27T00:42:21.918Z,100204.16
2023-04-27T00:44:48.350Z,100202.22
2023-04-27T00:47:15.810Z,100198.44
2023-04-27T00:49:42.431Z,100198.47
2023-04-27T00:52:08.825Z,100202.03
2023-04-27T00:54:35.400Z,100214.38
2023-04-27T00:57:02.270Z,100208.06
2023-04-27T00:59:29.033Z,100210.53
2023-04-27T01:01:56.085Z,100208.63
2023-04-27T01:04:23.552Z,100211.94
2023-04-27T01:06:50.318Z,100206.38
2023-04-27T01:09:19.766Z,100208.31
2023-04-27T01:11:47.312Z,100207.78
2023-04-27T01:14:14.508Z,100213.50
2023-04-27T01:16:41.426Z,100210.22
2023-04-27T01:19:08.944Z,100207.22
2023-04-27T01:21:35.772Z,100219.56
2023-04-27T01:24:04.784Z,100219.31
2023-04-27T01:26:31.525Z,100211.13
2023-04-27T01:28:58.228Z,100228.09
2023-04-27T01:31:24.997Z,100214.09
2023-04-27T01:33:51.932Z,100218.22
2023-04-27T01:36:18.803Z,100220.34
2023-04-27T01:38:45.636Z,100224.97
2023-04-27T01:41:13.405Z,100220.06
2023-04-27T01:43:40.113Z,100220.31
2023-04-27T01:46:08.547Z,100231.53
2023-04-27T01:48:36.005Z,100230.50
2023-04-27T01:51:03.659Z,100227.78
2023-04-27T01:53:31.127Z,100231.66
2023-04-27T01:55:59.622Z,100228.94
2023-04-27T01:58:27.008Z,100235.25
2023-04-27T02:00:53.936Z,100240.75
2023-04-27T02:03:20.713Z,100236.63
2023-04-27T02:05:48.044Z,100233.00
2023-04-27T02:08:15.143Z,100236.31
2023-04-27T02:10:41.791Z,100236.88
2023-04-27T02:13:09.668Z,100237.16
2023-04-27T02:15:36.536Z,100241.28
2023-04-27T02:18:03.857Z,100244.88
2023-04-27T02:20:31.449Z,100250.34
2023-04-27T02:22:58.122Z,100244.91
2023-04-27T02:25:24.912Z,100249.84
2023-04-27T02:27:51.442Z,100249.59
2023-04-27T02:30:18.213Z,100247.69
2023-04-27T02:32:46.338Z,100253.72
2023-04-27T02:35:13.084Z,100249.88
2023-04-27T02:37:39.922Z,100253.72
2023-04-27T02:40:08.067Z,100250.44
2023-04-27T02:42:35.743Z,100251.53
2023-04-27T02:45:02.249Z,100252.63
2023-04-27T02:47:28.788Z,100242.50
2023-04-27T02:49:55.662Z,100251.56
2023-04-27T02:52:22.760Z,100249.66
2023-04-27T02:54:49.188Z,100246.63
2023-04-27T02:57:15.768Z,100252.66
2023-04-27T02:59:42.329Z,100249.34
2023-04-27T03:02:08.850Z,100244.16
2023-04-27T03:04:36.668Z,100244.16
2023-04-27T03:07:03.958Z,100240.91
2023-04-27T03:09:30.533Z,100254.06
2023-04-27T03:11:56.961Z,100253.50
2023-04-27T03:14:23.399Z,100247.75
2023-04-27T03:16:51.009Z,100259.28
2023-04-27T03:19:17.697Z,100265.31
2023-04-27T03:21:44.701Z,100268.06
2023-04-27T03:24:11.161Z,100265.59
2023-04-27T03:26:37.720Z,100272.44
2023-04-27T03:29:04.196Z,100279.84
2023-04-27T03:31:30.828Z,100280.13
2023-04-27T03:33:57.297Z,100278.47
2023-04-27T03:36:24.096Z,100281.22
2023-04-27T03:38:50.561Z,100284.50
2023-04-27T03:41:17.091Z,100289.44
2023-04-27T03:43:43.717Z,100287.25
2023-04-27T03:46:10.287Z,100287.81
2023-04-27T03:48:36.813Z,100299.31
2023-04-27T03:51:03.494Z,100291.63
2023-04-27T03:53:30.623Z,100301.78
2023-04-27T03:55:57.044Z,100309.72
2023-04-27T03:58:23.584Z,100297.94
2023-04-27T04:00:50.150Z,100303.69
2023-04-27T04:03:17.376Z,100305.88
2023-04-27T04:05:46.787Z,100302.31
2023-04-27T04:08:14.015Z,100306.69
2023-04-27T04:10:40.540Z,100309.16
2023-04-27T04:13:07.148Z,100309.72
2023-04-27T04:15:33.592Z,100303.94
2023-04-27T04:18:00.245Z,100312.97
2023-04-27T04:20:26.984Z,100313.25
2023-04-27T04:22:53.558Z,100314.59
2023-04-27T04:25:20.848Z,100321.44
2023-04-27T04:27:48.597Z,100319.22
2023-04-27T04:30:15.243Z,100322.78
2023-04-27T04:32:41.948Z,100327.72
2023-04-27T04:35:08.613Z,100327.97
2023-04-27T04:37:35.565Z,100327.16
2023-04-27T04:40:09.444Z,100324.44
2023-04-27T04:42:39.275Z,100336.47
2023-04-27T04:45:07.199Z,100335.34
2023-04-27T04:47:34.202Z,100344.09
2023-04-27T04:50:01.453Z,100339.09
2023-04-27T04:52:28.047Z,100329.19
2023-04-27T04:54:54.720Z,100330.25
2023-04-27T04:57:21.333Z,100332.94
2023-04-27T04:59:47.958Z,100339.09
2023-04-27T05:02:15.787Z,100341.72
2023-04-27T05:04:42.290Z,100352.25
2023-04-27T05:07:08.737Z,100355.19
2023-04-27T05:09:35.348Z,100348.28
2023-04-27T05:12:02.138Z,100351.47
2023-04-27T05:14:28.744Z,100352.81
2023-04-27T05:16:55.203Z,100349.63
2023-04-27T05:19:21.860Z,100351.66
2023-04-27T05:21:48.371Z,100348.28
2023-04-27T05:24:14.845Z,100351.91
2023-04-27T05:26:43.045Z,100347.19
2023-04-27T05:29:09.636Z,100347.47
2023-04-27T05:31:36.171Z,100351.31
2023-04-27T05:34:02.829Z,100346.38
2023-04-27T05:36:29.341Z,100352.16
2023-04-27T05:38:56.185Z,100352.88
2023-04-27T05:41:23.778Z,100351.09
2023-04-27T05:43:50.276Z,100346.31
2023-04-27T05:46:16.950Z,100351.09
2023-04-27T05:48:43.536Z,100343.88
2023-04-27T05:51:10.237Z,100342.81
2023-04-27T05:53:36.929Z,100343.56
2023-04-27T05:56:04.718Z,100343.84
2023-04-27T05:58:31.361Z,100334.94
2023-04-27T06:00:57.918Z,100338.53
2023-04-27T06:03:25.266Z,100337.28
2023-04-27T06:05:58.628Z,100331.28
2023-04-27T06:08:26.056Z,100333.22
2023-04-27T06:10:53.182Z,100326.03
2023-04-27T06:13:19.962Z,100332.00
2023-04-27T06:15:47.440Z,100334.31
2023-04-27T06:18:14.222Z,100340.88
2023-04-27T06:20:41.976Z,100340.06
2023-04-27T06:23:08.468Z,100332.19
2023-04-27T06:25:35.844Z,100335.09
2023-04-27T06:28:02.848Z,100336.91
2023-04-27T06:30:29.434Z,100332.75
2023-04-27T06:32:55.965Z,100340.91
2023-04-27T06:35:22.638Z,100335.69
2023-04-27T06:37:49.122Z,100340.59
2023-04-27T06:40:15.565Z,100347.28
2023-04-27T06:42:42.147Z,100339.09
2023-04-27T06:45:09.019Z,100344.66
2023-04-27T06:47:35.528Z,100340.09
2023-04-27T06:50:02.096Z,100338.53
2023-04-27T06:52:28.547Z,100345.50
2023-04-27T06:54:55.007Z,100346.50
2023-04-27T06:57:21.623Z,100348.22
2023-04-27T06:59:48.041Z,100353.81
2023-04-27T07:02:14.857Z,100360.13
2023-04-27T07:04:43.403Z,100346.38
2023-04-27T07:07:09.991Z,100353.66
2023-04-27T07:09:36.490Z,100357.03
2023-04-27T07:12:03.123Z,100351.16
2023-04-27T07:14:29.548Z,100353.28
2023-04-27T07:16:56.481Z,100352.28
2023-04-27T07:19:23.101Z,100352.34
2023-04-27T07:21:50.296Z,100354.66
2023-04-27T07:24:16.713Z,100352.03
2023-04-27T07:26:43.204Z,100350.75
2023-04-27T07:29:25.590Z,100353.44
2023-04-27T07:31:53.310Z,100346.03
2023-04-27T07:34:20.304Z,100347.72
2023-04-27T07:36:46.836Z,100353.09
2023-04-27T07:39:13.555Z,100339.50
2023-04-27T07:41:40.093Z,100351.19
2023-04-27T07:44:06.616Z,100359.63
2023-04-27T07:46:33.114Z,100356.03
2023-04-27T07:49:00.107Z,100352.19
2023-04-27T07:51:28.818Z,100355.41
2023-04-27T07:53:55.729Z,100362.06
2023-04-27T07:56:22.252Z,100366.53
2023-04-27T07:58:48.790Z,100370.06
2023-04-27T08:01:15.378Z,100361.53
2023-04-27T08:03:42.134Z,100365.25
2023-04-27T08:06:09.204Z,100369.53
2023-04-27T08:08:36.294Z,100378.84
2023-04-27T08:11:02.747Z,100379.00
2023-04-27T08:13:29.752Z,100377.06
2023-04-27T08:15:58.548Z,100370.66
2023-04-27T08:18:27.211Z,100372.38
2023-04-27T08:20:54.143Z,100372.19
2023-04-27T08:23:21.424Z,100376.47
2023-04-27T08:25:48.570Z,100370.16
2023-04-27T08:28:15.422Z,100375.19
2023-04-27T08:30:42.594Z,100374.94
2023-04-27T08:33:09.156Z,100364.88
2023-04-27T08:35:36.101Z,100366.91
2023-04-27T08:38:02.551Z,100369.16
2023-04-27T08:40:29.548Z,100368.22
2023-04-27T08:42:58.187Z,100367.34
2023-04-27T08:45:25.832Z,100367.78
2023-04-27T08:47:52.712Z,100364.91
2023-04-27T08:50:19.531Z,100364.59
2023-04-27T08:52:47.182Z,100366.16
2023-04-27T08:55:16.248Z,100353.19
2023-04-27T08:57:53.965Z,100363.16
2023-04-27T09:00:20.998Z,100356.47
2023-04-27T09:02:48.887Z,100358.72
2023-04-27T09:05:19.528Z,100361.34
2023-04-27T09:07:59.718Z,100365.97
2023-04-27T09:10:29.155Z,100361.25
2023-04-27T09:13:01.128Z,100363.63
2023-04-27T09:15:28.714Z,100360.41
2023-04-27T09:17:58.437Z,100356.31
2023-04-27T09:20:27.187Z,100354.38
2023-04-27T09:22:58.398Z,100344.75
2023-04-27T09:25:30.208Z,100354.38
2023-04-27T09:27:58.142Z,100355.63
2023-04-27T09:30:26.022Z,100356.41
2023-04-27T09:32:57.658Z,100347.91
2023-04-27T09:35:26.622Z,100339.09
2023-04-27T09:37:54.063Z,100343.00
2023-04-27T09:40:31.893Z,100327.94
2023-04-27T09:43:01.648Z,100337.81
2023-04-27T09:45:28.396Z,100334.97
2023-04-27T09:47:54.950Z,100340.88
2023-04-27T09:50:24.643Z,100330.66
2023-04-27T09:52:51.222Z,100334.63
2023-04-27T09:55:21.081Z,100332.75
2023-04-27T09:58:04.092Z,100331.91
2023-04-27T10:00:52.516Z,100340.38
2023-04-27T10:03:32.940Z,100329.81
2023-04-27T10:06:05.417Z,100334.69
2023-04-27T10:08:34.450Z,100331.53
2023-04-27T10:11:00.995Z,100328.66
2023-04-27T10:13:27.490Z,100327.66
2023-04-27T10:15:54.361Z,100332.44
2023-04-27T10:18:29.574Z,100339.06
2023-04-27T10:20:56.267Z,100333.13
2023-04-27T10:23:26.723Z,100336.34
2023-04-27T10:25:54.330Z,100325.94
2023-04-27T10:28:21.603Z,100321.31
2023-04-27T10:30:52.020Z,100320.91
2023-04-27T10:33:20.203Z,100325.38
2023-04-27T10:35:55.881Z,100329.47
2023-04-27T10:38:30.719Z,100328.72
2023-04-27T10:41:02.128Z,100329.47
2023-04-27T10:43:34.684Z,100335.59
2023-04-27T10:46:12.822Z,100325.91
2023-04-27T10:48:40.795Z,100326.03
2023-04-27T10:51:07.520Z,100324.81
2023-04-27T10:53:37.663Z,100324.66
2023-04-27T10:56:06.812Z,100326.78
2023-04-27T10:58:47.550Z,100326.19
2023-04-27T11:01:29.486Z,100327.72
2023-04-27T11:03:57.799Z,100326.38
2023-04-27T11:06:24.414Z,100327.09
2023-04-27T11:08:51.479Z,100325.59
2023-04-27T11:11:18.333Z,100322.09
2023-04-27T11:13:44.992Z,100321.13
2023-04-27T11:16:11.948Z,100327.88
2023-04-27T11:18:38.557Z,100326.19
2023-04-27T11:21:16.776Z,100320.13
2023-04-27T11:23:43.791Z,100321.88
2023-04-27T11:26:21.467Z,100318.22
2023-04-27T11:28:58.830Z,100314.94
2023-04-27T11:31:26.705Z,100307.50
2023-04-27T11:33:56.024Z,100304.25
2023-04-27T11:36:23.593Z,100316.13
2023-04-27T11:38:50.133Z,100321.72
2023-04-27T11:41:16.640Z,100320.84
2023-04-27T11:43:49.212Z,100311.19
2023-04-27T11:46:15.893Z,100323.34
2023-04-27T11:48:42.393Z,100318.50
2023-04-27T11:51:11.197Z,100332.22
2023-04-27T11:53:42.400Z,100330.44
2023-04-27T11:56:13.378Z,100320.97
2023-04-27T11:58:40.447Z,100326.19
2023-04-27T12:01:07.655Z,100330.44
2023-04-27T12:03:35.032Z,100339.50
2023-04-27T12:08:31.439Z,100332.28
2023-04-27T12:10:57.896Z,100334.56
2023-04-27T12:13:24.467Z,100329.66
2023-04-27T12:15:51.412Z,100322.97
2023-04-27T12:18:17.826Z,100337.25
2023-04-27T12:20:44.668Z,100332.88
2023-04-27T12:23:12.175Z,100331.69
2023-04-27T12:25:41.075Z,100328.38
2023-04-27T12:28:07.795Z,100335.81
2023-04-27T12:30:34.751Z,100339.47
2023-04-27T12:33:02.345Z,100347.25
2023-04-27T12:35:31.951Z,100346.91
2023-04-27T12:37:58.667Z,100338.28
2023-04-27T12:40:25.140Z,100341.53
2023-04-27T12:42:51.530Z,100337.91
2023-04-27T12:45:18.219Z,100343.56
2023-04-27T12:48:01.186Z,100337.56
2023-04-27T12:50:28.926Z,100341.66
2023-04-27T12:52:55.330Z,100335.38
2023-04-27T12:55:32.255Z,100329.47
2023-04-27T12:58:00.763Z,100329.94
2023-04-27T13:00:27.687Z,100337.63
2023-04-27T13:02:54.727Z,100313.56
2023-04-27T13:05:22.388Z,100326.19
2023-04-27T13:07:48.927Z,100323.75
2023-04-27T13:10:15.479Z,100331.28
2023-04-27T13:12:42.027Z,100326.63
2023-04-27T13:15:09.340Z,100331.00
2023-04-27T13:17:35.833Z,100322.25
2023-04-27T13:20:02.431Z,100319.75
2023-04-27T13:22:28.908Z,100324.75
2023-04-27T13:24:55.597Z,100323.94
2023-04-27T13:27:25.107Z,100317.66
2023-04-27T13:29:51.537Z,100330.09
2023-04-27T13:32:18.674Z,100323.16
2023-04-27T13:34:45.459Z,100326.28
2023-04-27T13:37:11.965Z,100318.44
2023-04-27T13:39:38.435Z,100321.28
2023-04-27T13:42:05.018Z,100322.44
2023-04-27T13:44:31.933Z,100320.75
2023-04-27T13:46:58.559Z,100317.81
2023-04-27T13:49:25.935Z,100311.25
2023-04-27T13:51:52.673Z,100313.63
2023-04-27T13:54:20.556Z,100312.34
2023-04-27T13:56:47.065Z,100309.69
2023-04-27T13:59:13.853Z,100307.13
2023-04-27T14:01:40.694Z,100306.06
2023-04-27T14:04:07.562Z,100304.22
2023-04-27T14:06:34.272Z,100305.69
2023-04-27T14:09:00.843Z,100295.25
2023-04-27T14:11:27.526Z,100308.22
2023-04-27T14:13:54.060Z,100303.31
2023-04-27T14:16:20.905Z,100303.03
2023-04-27T14:18:47.386Z,100301.84
2023-04-27T14:21:13.968Z,100294.41
2023-04-27T14:23:40.476Z,100294.34
2023-04-27T14:26:06.928Z,100294.44
2023-04-27T14:28:33.392Z,100294.50
2023-04-27T14:30:59.824Z,100294.44
2023-04-27T14:33:26.336Z,100300.84
2023-04-27T14:35:53.994Z,100293.34
2023-04-27T14:38:20.532Z,100289.97
2023-04-27T14:40:47.010Z,100279.25
2023-04-27T14:43:13.624Z,100285.97
2023-04-27T14:45:50.323Z,100276.31
2023-04-27T14:48:19.196Z,100280.69
2023-04-27T14:50:45.842Z,100280.34
2023-04-27T14:53:12.497Z,100285.63
2023-04-27T14:55:41.022Z,100282.63
2023-04-27T14:58:07.507Z,100288.69
2023-04-27T15:00:34.033Z,100286.38
2023-04-27T15:03:00.970Z,100292.69
2023-04-27T15:05:27.565Z,100291.47
2023-04-27T15:07:54.340Z,100294.25
2023-04-27T15:10:20.796Z,100294.16
2023-04-27T15:12:47.229Z,100282.78
2023-04-27T15:15:13.885Z,100285.91
2023-04-27T15:17:40.805Z,100294.59
2023-04-27T15:20:08.212Z,100286.31
2023-04-27T15:22:34.662Z,100287.16
2023-04-27T15:25:01.114Z,100286.84
2023-04-27T15:27:27.751Z,100288.13
2023-04-27T15:29:54.746Z,100287.69
2023-04-27T15:32:24.517Z,100282.94
2023-04-27T15:34:51.952Z,100290.97
2023-04-27T15:37:18.744Z,100297.91
2023-04-27T15:39:45.407Z,100297.28
2023-04-27T15:42:11.913Z,100293.94
2023-04-27T15:44:38.453Z,100290.06
2023-04-27T15:47:05.262Z,100282.59
2023-04-27T15:49:34.425Z,100282.09
2023-04-27T15:52:06.634Z,100279.97
2023-04-27T15:54:33.663Z,100270.03
2023-04-27T15:57:04.163Z,100270.03
2023-04-27T15:59:31.253Z,100268.81
2023-04-27T16:01:57.917Z,100263.47
2023-04-27T16:04:24.534Z,100268.63
2023-04-27T16:06:50.997Z,100263.69
2023-04-27T16:09:18.068Z,100263.97
2023-04-27T16:11:45.073Z,100258.56
2023-04-27T16:14:11.736Z,100261.66
2023-04-27T16:16:39.487Z,100253.78
2023-04-27T16:19:07.518Z,100243.09
2023-04-27T16:21:34.243Z,100245.84
2023-04-27T16:24:00.933Z,100244.19
2023-04-27T16:26:28.285Z,100237.44
2023-04-27T16:28:56.489Z,100242.06
2023-04-27T16:31:23.190Z,100234.03
2023-04-27T16:33:49.601Z,100242.72
2023-04-27T16:36:17.055Z,100239.56
2023-04-27T16:38:43.673Z,100235.00
2023-04-27T16:41:10.205Z,100236.03
2023-04-27T16:43:36.637Z,100235.88
2023-04-27T16:46:03.177Z,100226.28
2023-04-27T16:48:30.504Z,100231.22
2023-04-27T16:50:57.102Z,100239.53
2023-04-27T16:53:23.627Z,100233.38
2023-04-27T16:55:50.072Z,100241.84
2023-04-27T16:58:16.753Z,100242.41
2023-04-27T17:00:43.477Z,100243.44
2023-04-27T17:03:11.116Z,100245.59
2023-04-27T17:05:37.840Z,100240.81
2023-04-27T17:08:05.543Z,100252.84
2023-04-27T17:10:32.283Z,100248.63
2023-04-27T17:12:59.100Z,100248.63
2023-04-27T17:15:26.621Z,100248.50
2023-04-27T17:17:53.271Z,100252.84
2023-04-27T17:20:19.984Z,100246.09
2023-04-27T17:22:46.722Z,100249.88
2023-04-27T17:25:13.200Z,100254.28
2023-04-27T17:27:39.908Z,100253.63
2023-04-27T17:30:08.276Z,100256.09
2023-04-27T17:32:35.206Z,100265.59
2023-04-27T17:35:01.769Z,100260.75
2023-04-27T17:37:28.373Z,100259.34
2023-04-27T17:39:55.321Z,100269.91
2023-04-27T17:42:21.847Z,100257.50
2023-04-27T17:44:48.324Z,100263.75
2023-04-27T17:47:14.977Z,100261.53
2023-04-27T17:49:41.592Z,100268.16
2023-04-27T17:52:09.655Z,100266.00
2023-04-27T17:54:36.313Z,100269.03
2023-04-27T17:57:02.920Z,100263.44
2023-04-27T17:59:29.345Z,100269.25
2023-04-27T18:01:55.999Z,100273.25
2023-04-27T18:04:22.845Z,100260.19
2023-04-27T18:06:49.635Z,100271.19
2023-04-27T18:09:17.522Z,100278.44
2023-04-27T18:11:44.000Z,100279.13
2023-04-27T18:14:10.494Z,100278.75
2023-04-27T18:16:37.227Z,100267.34
2023-04-27T18:19:03.900Z,100280.78
2023-04-27T18:21:31.134Z,100285.66
2023-04-27T18:23:57.807Z,100286.19
2023-04-27T18:26:24.338Z,100281.84
2023-04-27T18:28:50.978Z,100277.69
2023-04-27T18:31:18.307Z,100279.59
2023-04-27T18:33:45.640Z,100278.78
2023-04-27T18:36:12.617Z,100272.41
2023-04-27T18:38:39.079Z,100289.66
2023-04-27T18:41:05.688Z,100294.91
2023-04-27T18:43:34.383Z,100298.41
2023-04-27T18:46:00.851Z,100305.44
2023-04-27T18:48:27.288Z,100306.63
2023-04-27T18:50:53.848Z,100308.22
2023-04-27T18:53:20.385Z,100307.91
2023-04-27T18:55:47.200Z,100315.44
2023-04-27T18:58:13.624Z,100317.56
2023-04-27T19:00:40.209Z,100320.03
2023-04-27T19:03:08.196Z,100312.38
2023-04-27T19:05:34.987Z,100323.31
2023-04-27T19:08:01.681Z,100325.91
2023-04-27T19:10:29.078Z,100323.13
2023-04-27T19:12:57.087Z,100323.31
2023-04-27T19:15:23.856Z,100318.25
2023-04-27T19:18:02.189Z,100317.59
2023-04-27T19:20:36.316Z,100320.69
2023-04-27T19:23:02.933Z,100324.91
2023-04-27T19:25:29.842Z,100329.63
2023-04-27T19:27:56.657Z,100327.19
2023-04-27T19:30:23.087Z,100333.22
2023-04-27T19:32:49.758Z,100332.72
2023-04-27T19:35:17.057Z,100327.16
2023-04-27T19:37:43.728Z,100334.16
2023-04-27T19:40:10.849Z,100325.84
2023-04-27T19:42:37.470Z,100333.66
2023-04-27T19:45:04.527Z,100330.03
2023-04-27T19:47:31.200Z,100332.28
2023-04-27T19:49:59.108Z,100324.75
2023-04-27T19:52:25.938Z,100315.63
2023-04-27T19:54:53.452Z,100323.88
2023-04-27T19:57:21.122Z,100320.56
2023-04-27T19:59:48.174Z,100317.22
2023-04-27T20:02:15.032Z,100320.34
2023-04-27T20:04:42.155Z,100312.19
2023-04-27T20:07:08.835Z,100313.63
2023-04-27T20:09:35.397Z,100313.09
2023-04-27T20:12:02.091Z,100316.47
2023-04-27T20:14:31.173Z,100310.59
2023-04-27T20:16:57.980Z,100307.19
2023-04-27T20:19:25.178Z,100313.09
2023-04-27T20:21:51.698Z,100309.00
2023-04-27T20:24:18.422Z,100302.84
2023-04-27T20:26:45.064Z,100307.88
2023-04-27T20:29:11.642Z,100302.47
2023-04-27T20:31:38.300Z,100306.34
2023-04-27T20:34:04.847Z,100306.34
2023-04-27T20:36:32.176Z,100300.59
2023-04-27T20:39:02.362Z,100301.72
2023-04-27T20:41:28.872Z,100306.81
2023-04-27T20:43:55.556Z,100305.91
2023-04-27T20:46:22.182Z,100313.00
2023-04-27T20:48:48.790Z,100316.25
2023-04-27T20:51:15.347Z,100308.06
2023-04-27T20:53:42.269Z,100312.16
2023-04-27T20:56:09.101Z,100304.63
2023-04-27T20:58:35.558Z,100313.81
2023-04-27T21:01:02.518Z,100320.34
2023-04-27T21:03:29.350Z,100313.31
2023-04-27T21:05:56.349Z,100311.38
2023-04-27T21:08:22.801Z,100313.28
2023-04-27T21:10:49.743Z,100309.47
2023-04-27T21:13:16.213Z,100304.06
2023-04-27T21:15:42.702Z,100286.66
2023-04-27T21:18:16.051Z,100283.22
2023-04-27T21:20:49.618Z,100288.53
2023-04-27T21:23:16.288Z,100288.03
2023-04-27T21:25:46.604Z,100287.34
2023-04-27T21:28:13.665Z,100282.00
2023-04-27T21:30:40.243Z,100285.72
2023-04-27T21:33:06.955Z,100294.19
2023-04-27T21:35:33.741Z,100292.25
2023-04-27T21:38:00.809Z,100283.25
2023-04-27T21:40:27.671Z,100285.59
2023-04-27T21:42:54.542Z,100286.84
2023-04-27T21:45:21.527Z,100287.47
2023-04-27T21:47:48.082Z,100277.81
2023-04-27T21:50:14.587Z,100277.28
2023-04-27T21:52:41.043Z,100275.34
2023-04-27T21:55:08.037Z,100273.53
2023-04-27T21:57:34.620Z,100271.81
2023-04-27T22:00:01.738Z,100267.53
2023-04-27T22:02:29.499Z,100270.00
2023-04-27T22:04:56.517Z,100269.63
2023-04-27T22:07:24.641Z,100269.81
2023-04-27T22:09:51.215Z,100272.19
2023-04-27T22:12:17.611Z,100265.63
2023-04-27T22:14:44.163Z,100270.75
2023-04-27T22:17:12.545Z,100275.06
2023-04-27T22:19:38.997Z,100283.16
2023-04-27T22:22:05.764Z,100274.63
2023-04-27T22:24:32.457Z,100273.41
2023-04-27T22:26:59.021Z,100276.59
2023-04-27T22:29:25.719Z,100276.81
2023-04-27T22:31:52.401Z,100272.28
2023-04-27T22:34:19.193Z,100271.88
2023-04-27T22:36:45.812Z,100279.47
2023-04-27T22:39:12.273Z,100278.13
2023-04-27T22:41:38.733Z,100277.31
2023-04-27T22:44:05.780Z,100277.81
2023-04-27T22:46:32.701Z,100282.63
2023-04-27T22:49:01.511Z,100281.59
2023-04-27T22:51:27.895Z,100293.25
2023-04-27T22:53:54.643Z,100295.91
2023-04-27T22:56:21.352Z,100290.28
2023-04-27T22:58:47.879Z,100284.34
2023-04-27T23:01:14.455Z,100280.69
2023-04-27T23:03:41.554Z,100280.69
2023-04-27T23:06:14.219Z,100272.50
2023-04-27T23:08:46.888Z,100284.34
2023-04-27T23:11:13.828Z,100281.91
2023-04-27T23:13:40.868Z,100271.28
2023-04-27T23:16:07.868Z,100266.16
2023-04-27T23:18:34.785Z,100265.88
2023-04-27T23:21:01.845Z,100268.63
2023-04-27T23:23:29.015Z,100266.69
2023-04-27T23:25:55.787Z,100267.00
2023-04-27T23:28:22.636Z,100261.06
2023-04-27T23:30:55.860Z,100269.53
2023-04-27T23:33:22.619Z,100258.19
2023-04-27T23:35:49.195Z,100262.16
2023-04-27T23:38:16.321Z,100261.34
2023-04-27T23:40:42.886Z,100264.31
2023-04-27T23:43:09.339Z,100258.31
2023-04-27T23:45:36.222Z,100243.97
2023-04-27T23:48:02.829Z,100251.22
2023-04-27T23:50:29.342Z,100250.72
2023-04-27T23:52:56.614Z,100239.25
2023-04-27T23:55:23.116Z,100241.91
2023-04-27T23:57:52.807Z,100238.75
